Flight Track Log - Related Links

Times and Time Zones

All times are in EDT time to prevent confusion due to time zone crossing. See the VH-YJJ flight status page for this flight to view local times or setup timezone preferences in your user account.


Time Position Orientation Groundspeed Altitude Reporting Facility
EDT Latitude Longitude Course Direction KTS MPH feet Rate Location/Type
Tue 06:08:21 PM -34.9525 138.5319 40° Northeast 7,000  Level Aus ATC (Calculated)
Tue 06:09:19 PM -34.9373 138.5477 52° Northeast 92 106 900 -3,216 Descending Aus ATC (RADAR)
Tue 06:09:58 PM -34.9233 138.5699 52° Northeast 102 117 1,800 1,440 Climbing Aus ATC (RADAR)
Tue 06:10:59 PM -34.9493 138.6022 134° Southeast 117 135 3,300 1,377 Climbing Aus ATC (RADAR)
Tue 06:12:00 PM -34.9853 138.6285 149° Southeast 125 144 4,600 1,180 Climbing Aus ATC (RADAR)
Tue 06:13:01 PM -35.0194 138.6559 147° Southeast 126 145 5,700 1,069 Climbing Aus ATC (RADAR)
Tue 06:13:41 PM -35.0383 138.6705 148° Southeast 121 139 6,400 880 Climbing Aus ATC (RADAR)
Tue 06:14:16 PM -35.0558 138.6817 152° Southeast 121 139 6,800 429 Climbing Aus ATC (RADAR)
Tue 06:14:51 PM -35.0755 138.6929 155° Southeast 135 155 6,900 86 Climbing Aus ATC (RADAR)
Tue 06:15:26 PM -35.0986 138.7079 152° Southeast 161 185 6,900 86 Level Aus ATC (RADAR)
Tue 06:16:01 PM -35.1222 138.7240 151° Southeast 167 192 7,000 -52 Climbing Aus ATC (RADAR)
Tue 06:17:21 PM -35.1819 138.7580 155° Southeast 178 205 6,800 -92 Descending Aus ATC (RADAR)
Tue 06:18:11 PM -35.2188 138.7806 153° Southeast 179 206 6,800 67 Level Aus ATC (RADAR)
Tue 06:18:51 PM -35.2485 138.7980 154° Southeast 176 203 6,900 81 Climbing Aus ATC (RADAR)
Tue 06:19:25 PM -35.2743 138.8138 153° Southeast 177 204 6,900  Level Aus ATC (RADAR)
Tue 06:20:00 PM -35.2997 138.8292 154° Southeast 176 203 6,900  Level Aus ATC (RADAR)
Tue 06:20:35 PM -35.3247 138.8470 150° Southeast 177 204 6,900  Level Aus ATC (RADAR)
Tue 06:21:10 PM -35.3500 138.8642 151° Southeast 178 205 6,900 -60 Level Aus ATC (RADAR)
Tue 06:22:15 PM -35.3963 138.8963 151° Southeast 177 204 6,800 52 Descending Aus ATC (RADAR)
Tue 06:23:05 PM -35.4316 138.9206 151° Southeast 174 200 7,000 150 Climbing Aus ATC (RADAR)
Tue 06:23:35 PM -35.4524 138.9369 147° Southeast 174 200 7,000  Level Aus ATC (RADAR)
Tue 06:24:10 PM -35.4771 138.9546 150° Southeast 177 204 7,000 -87 Level Aus ATC (RADAR)
Tue 06:24:44 PM -35.5022 138.9709 152° Southeast 174 200 6,900 -87 Descending Aus ATC (RADAR)
Tue 06:25:19 PM -35.5270 138.9902 148° Southeast 179 206 6,900 86 Level Aus ATC (RADAR)
Tue 06:25:54 PM -35.5520 139.0067 152° Southeast 178 205 7,000 75 Climbing Aus ATC (RADAR)
Tue 06:26:39 PM -35.5839 139.0301 149° Southeast 179 206 7,000 -71 Level Aus ATC (RADAR)
Tue 06:27:19 PM -35.6122 139.0509 149° Southeast 178 205 6,900  Descending Aus ATC (RADAR)
Tue 06:27:54 PM -35.6373 139.0682 151° Southeast 178 205 7,000 80 Climbing Aus ATC (RADAR)
Tue 06:28:34 PM -35.6658 139.0887 150° Southeast 178 205 7,000  Level Aus ATC (RADAR)
Tue 06:29:34 PM -35.7099 139.1173 152° Southeast 181 208 7,000  Level Aus ATC (RADAR)
Tue 06:30:19 PM -35.7422 139.1402 150° Southeast 180 207 7,000  Level Aus ATC (RADAR)
Tue 06:30:54 PM -35.7676 139.1581 150° Southeast 180 207 7,000  Level Aus ATC (RADAR)
Tue 06:31:43 PM -35.8049 139.1808 154° Southeast 182 209 7,000  Level Aus ATC (RADAR)
Tue 06:32:23 PM -35.8343 139.2004 152° Southeast 181 208 7,000 80 Level Aus ATC (RADAR)
Tue 06:32:58 PM -35.8600 139.2178 151° Southeast 182 209 7,100 -75 Climbing Aus ATC (RADAR)
Tue 06:33:43 PM -35.8939 139.2391 153° Southeast 183 211 6,900 -60 Descending Aus ATC (RADAR)
Tue 06:34:38 PM -35.9355 139.2646 154° Southeast 183 211 7,000 57 Climbing Aus ATC (RADAR)
Tue 06:35:28 PM -35.9728 139.2894 152° Southeast 182 209 7,000 -71 Level Aus ATC (RADAR)
Tue 06:36:03 PM -35.9995 139.3064 153° Southeast 184 212 6,900  Descending Aus ATC (RADAR)
Tue 06:36:48 PM -36.0323 139.3306 149° Southeast 182 209 7,000  Climbing Aus ATC (RADAR)
Tue 06:37:28 PM -36.0618 139.3517 150° Southeast 185 213 6,900  Descending Aus ATC (RADAR)
Tue 06:38:03 PM -36.0874 139.3694 151° Southeast 183 211 7,000  Climbing Aus ATC (RADAR)
Tue 06:38:43 PM -36.1171 139.3893 152° Southeast 181 208 6,900 -60 Descending Aus ATC (RADAR)
Tue 06:39:43 PM -36.1616 139.4200 151° Southeast 183 211 6,900 57 Level Aus ATC (RADAR)
Tue 06:40:28 PM -36.1954 139.4417 153° Southeast 182 209 7,000 80 Climbing Aus ATC (RADAR)
Tue 06:40:58 PM -36.2178 139.4567 152° Southeast 183 211 7,000  Level Aus ATC (RADAR)
Tue 06:41:33 PM -36.2436 139.4747 151° Southeast 182 209 7,000  Level Aus ATC (RADAR)
Tue 06:42:17 PM -36.2783 139.4941 156° South 181 208 7,000  Level Aus ATC (RADAR)
Tue 06:43:17 PM -36.3232 139.5235 152° Southeast 182 209 7,000  Level Aus ATC (RADAR)
Tue 06:44:02 PM -36.3578 139.5433 155° Southeast 183 211 7,000  Level Aus ATC (RADAR)
Tue 06:44:37 PM -36.3833 139.5614 150° Southeast 182 209 7,000 -257 Level Aus ATC (RADAR)
Tue 06:45:12 PM -36.4089 139.5812 148° Southeast 187 215 6,700 -646 Descending Aus ATC (RADAR)
Tue 06:45:42 PM -36.4329 139.5979 151° Southeast 196 226 6,300 -800 Descending Aus ATC (RADAR)
Tue 06:49:02 PM -36.5781 139.6996 151° Southeast -1,890 Descending Aus ATC (Calculated)
Tue 06:51:00 PM -36.6571 139.7551 151° Southeast  Level FlightAware Approximate
Tue 06:52:00 PM -36.6972 139.7833 151° Southeast  Level FlightAware Approximate
Tue 06:53:00 PM -36.7373 139.8116 151° Southeast  Level FlightAware Approximate
Tue 06:54:00 PM -36.7775 139.8399 151° Southeast  Level FlightAware Approximate

Login

Don't have an account? Register now (free) for customized features, flight alerts, and more!